createdAt,value
2023-04-11T00:00:20.361Z,96249.03
2023-04-11T00:02:48.503Z,96257.72
2023-04-11T00:05:16.398Z,96271.41
2023-04-11T00:07:44.151Z,96284.84
2023-04-11T00:10:13.316Z,96275.78
2023-04-11T00:12:41.067Z,96279.97
2023-04-11T00:15:09.844Z,96266.44
2023-04-11T00:17:37.938Z,96269.47
2023-04-11T00:20:08.154Z,96267.81
2023-04-11T00:22:36.171Z,96270.78
2023-04-11T00:25:04.014Z,96270.97
2023-04-11T00:27:33.150Z,96269.66
2023-04-11T00:30:01.251Z,96260.19
2023-04-11T00:32:29.032Z,96270.38
2023-04-11T00:34:56.828Z,96278.69
2023-04-11T00:37:24.677Z,96275.13
2023-04-11T00:39:53.058Z,96274.38
2023-04-11T00:42:21.297Z,96271.41
2023-04-11T00:44:50.928Z,96255.53
2023-04-11T00:47:18.757Z,96255.25
2023-04-11T00:49:46.863Z,96257.81
2023-04-11T00:52:14.780Z,96246.03
2023-04-11T00:54:42.727Z,96231.50
2023-04-11T00:57:10.882Z,96240.16
2023-04-11T00:59:39.299Z,96240.16
2023-04-11T01:02:08.557Z,96220.78
2023-04-11T01:04:36.361Z,96210.03
2023-04-11T01:07:07.021Z,96230.34
2023-04-11T01:09:36.621Z,96245.34
2023-04-11T01:12:06.074Z,96248.00
2023-04-11T01:14:34.139Z,96233.41
2023-04-11T01:17:03.072Z,96213.72
2023-04-11T01:19:32.531Z,96217.75
2023-04-11T01:22:01.871Z,96234.91
2023-04-11T01:24:31.779Z,96224.03
2023-04-11T01:26:59.888Z,96211.81
2023-04-11T01:29:27.670Z,96216.75
2023-04-11T01:31:55.763Z,96216.75
2023-04-11T01:34:28.223Z,96197.03
2023-04-11T01:36:56.611Z,96217.44
2023-04-11T01:39:24.741Z,96212.66
2023-04-11T01:41:55.057Z,96214.31
2023-04-11T01:44:24.485Z,96222.00
2023-04-11T01:46:52.701Z,96230.41
2023-04-11T01:49:21.731Z,96219.16
2023-04-11T01:51:49.567Z,96217.78
2023-04-11T01:54:17.443Z,96218.03
2023-04-11T01:56:45.394Z,96215.16
2023-04-11T01:59:14.671Z,96207.66
2023-04-11T02:01:44.427Z,96207.84
2023-04-11T02:04:12.564Z,96194.34
2023-04-11T02:06:40.606Z,96184.69
2023-04-11T02:09:08.631Z,96180.97
2023-04-11T02:11:36.484Z,96183.38
2023-04-11T02:14:06.424Z,96182.00
2023-04-11T02:16:37.608Z,96183.59
2023-04-11T02:19:05.588Z,96163.63
2023-04-11T02:21:33.403Z,96192.41
2023-04-11T02:24:01.217Z,96192.16
2023-04-11T02:26:28.976Z,96186.00
2023-04-11T02:28:56.933Z,96186.66
2023-04-11T02:31:24.984Z,96206.25
2023-04-11T02:33:54.176Z,96190.41
2023-04-11T02:36:22.149Z,96191.09
2023-04-11T02:38:49.961Z,96179.03
2023-04-11T02:41:17.745Z,96193.03
2023-04-11T02:43:46.309Z,96204.41
2023-04-11T02:46:14.204Z,96210.78
2023-04-11T02:48:42.005Z,96218.91
2023-04-11T02:51:11.333Z,96224.75
2023-04-11T02:53:39.152Z,96195.00
2023-04-11T02:56:07.897Z,96200.88
2023-04-11T02:58:38.995Z,96201.97
2023-04-11T03:01:08.330Z,96212.66
2023-04-11T03:03:36.310Z,96227.69
2023-04-11T03:06:04.303Z,96237.34
2023-04-11T03:08:33.576Z,96236.31
2023-04-11T03:11:01.355Z,96228.78
2023-04-11T03:13:29.294Z,96231.94
2023-04-11T03:15:57.148Z,96223.09
2023-04-11T03:18:25.375Z,96227.84
2023-04-11T03:20:53.244Z,96232.38
2023-04-11T03:23:21.061Z,96236.09
2023-04-11T03:25:50.989Z,96235.63
2023-04-11T03:28:18.850Z,96235.56
2023-04-11T03:30:46.715Z,96254.00
2023-04-11T03:33:14.509Z,96256.81
2023-04-11T03:35:42.256Z,96244.44
2023-04-11T03:38:10.028Z,96245.56
2023-04-11T03:40:37.827Z,96240.28
2023-04-11T03:43:07.060Z,96248.31
2023-04-11T03:45:35.037Z,96255.41
2023-04-11T03:48:02.879Z,96245.09
2023-04-11T03:50:30.980Z,96246.47
2023-04-11T03:52:58.792Z,96228.63
2023-04-11T03:55:27.120Z,96230.53
2023-04-11T03:57:54.967Z,96251.66
2023-04-11T04:00:24.110Z,96250.13
2023-04-11T04:02:51.983Z,96263.78
2023-04-11T04:05:20.080Z,96253.31
2023-04-11T04:07:47.804Z,96261.13
2023-04-11T04:10:15.564Z,96253.22
2023-04-11T04:12:43.272Z,96284.50
2023-04-11T04:15:14.822Z,96279.47
2023-04-11T04:17:44.721Z,96308.81
2023-04-11T04:20:13.184Z,96302.47
2023-04-11T04:22:41.181Z,96301.72
2023-04-11T04:25:12.616Z,96301.94
2023-04-11T04:27:44.486Z,96305.47
2023-04-11T04:30:15.723Z,96296.03
2023-04-11T04:32:45.867Z,96298.00
2023-04-11T04:35:16.817Z,96316.28
2023-04-11T04:37:46.280Z,96311.44
2023-04-11T04:40:15.866Z,96330.00
2023-04-11T04:42:44.086Z,96326.03
2023-04-11T04:45:12.166Z,96332.53
2023-04-11T04:47:40.017Z,96348.91
2023-04-11T04:50:10.559Z,96338.59
2023-04-11T04:52:38.263Z,96354.28
2023-04-11T04:55:07.578Z,96354.75
2023-04-11T04:57:35.398Z,96360.84
2023-04-11T05:00:06.691Z,96360.28
2023-04-11T05:02:34.586Z,96379.88
2023-04-11T05:05:04.281Z,96371.78
2023-04-11T05:07:33.478Z,96362.47
2023-04-11T05:10:01.293Z,96377.25
2023-04-11T05:12:29.262Z,96373.28
2023-04-11T05:14:57.027Z,96380.38
2023-04-11T05:17:26.274Z,96380.03
2023-04-11T05:19:54.068Z,96373.97
2023-04-11T05:22:21.886Z,96369.44
2023-04-11T05:24:50.920Z,96394.91
2023-04-11T05:27:19.332Z,96400.47
2023-04-11T05:29:47.276Z,96378.75
2023-04-11T05:32:15.047Z,96387.47
2023-04-11T05:34:52.539Z,96378.03
2023-04-11T05:37:20.858Z,96370.13
2023-04-11T05:39:48.782Z,96373.41
2023-04-11T05:42:18.745Z,96372.13
2023-04-11T05:44:46.492Z,96382.69
2023-04-11T05:47:14.346Z,96384.09
2023-04-11T05:49:42.072Z,96388.38
2023-04-11T05:52:09.825Z,96373.84
2023-04-11T05:54:38.329Z,96369.44
2023-04-11T05:57:07.476Z,96378.28
2023-04-11T05:59:36.722Z,96385.16
2023-04-11T06:02:04.866Z,96390.72
2023-04-11T06:04:32.824Z,96388.97
2023-04-11T06:07:00.740Z,96388.59
2023-04-11T06:09:28.468Z,96380.94
2023-04-11T06:11:57.606Z,96382.44
2023-04-11T06:14:25.373Z,96374.19
2023-04-11T06:16:54.522Z,96390.34
2023-04-11T06:19:22.204Z,96380.25
2023-04-11T06:21:49.928Z,96379.22
2023-04-11T06:24:19.222Z,96394.69
2023-04-11T06:26:46.984Z,96395.25
2023-04-11T06:29:14.732Z,96388.28
2023-04-11T06:31:42.518Z,96357.38
2023-04-11T06:34:12.072Z,96387.44
2023-04-11T06:36:42.675Z,96378.75
2023-04-11T06:39:11.024Z,96391.88
2023-04-11T06:41:38.863Z,96393.38
2023-04-11T06:44:06.710Z,96401.19
2023-04-11T07:01:02.951Z,96387.69
2023-04-11T07:03:32.544Z,96422.22
2023-04-11T07:06:01.103Z,96429.06
2023-04-11T07:08:28.948Z,96426.03
2023-04-11T07:11:20.423Z,96440.91
2023-04-11T07:13:50.391Z,96351.56
2023-04-11T07:16:18.372Z,96427.06
2023-04-11T07:18:46.160Z,96431.72
2023-04-11T07:21:31.039Z,96428.25
2023-04-11T07:24:13.376Z,96404.06
2023-04-11T07:26:42.328Z,96456.13
2023-04-11T07:29:13.928Z,96452.19
2023-04-11T07:31:44.796Z,96445.91
2023-04-11T07:34:12.715Z,96467.06
2023-04-11T07:36:41.657Z,96470.31
2023-04-11T07:39:13.620Z,96470.06
2023-04-11T07:41:41.454Z,96490.91
2023-04-11T07:44:09.790Z,96478.41
2023-04-11T07:46:39.038Z,96492.81
2023-04-11T07:49:07.017Z,96490.22
2023-04-11T07:51:34.808Z,96494.09
2023-04-11T07:54:02.828Z,96503.66
2023-04-11T07:56:30.680Z,96510.63
2023-04-11T07:58:58.608Z,96496.97
2023-04-11T08:01:27.226Z,96503.13
2023-04-11T08:03:58.069Z,96491.63
2023-04-11T08:06:26.503Z,96492.97
2023-04-11T08:08:54.315Z,96506.50
2023-04-11T08:11:22.075Z,96510.09
2023-04-11T08:13:50.100Z,96507.66
2023-04-11T08:16:17.930Z,96524.50
2023-04-11T08:18:46.340Z,96496.88
2023-04-11T08:21:15.475Z,96518.63
2023-04-11T08:23:43.396Z,96513.88
2023-04-11T08:26:12.886Z,96507.81
2023-04-11T08:28:42.921Z,96515.47
2023-04-11T08:31:12.673Z,96535.72
2023-04-11T08:33:41.053Z,96544.50
2023-04-11T08:36:10.112Z,96550.78
2023-04-11T08:38:40.770Z,96541.44
2023-04-11T08:41:08.632Z,96537.19
2023-04-11T08:43:37.759Z,96540.41
2023-04-11T08:46:06.221Z,96549.16
2023-04-11T08:48:33.993Z,96551.56
2023-04-11T08:51:01.898Z,96551.31
2023-04-11T08:53:31.445Z,96531.19
2023-04-11T08:56:00.887Z,96562.53
2023-04-11T08:58:29.538Z,96555.09
2023-04-11T09:00:57.289Z,96545.00
2023-04-11T09:03:25.085Z,96541.19
2023-04-11T09:05:54.347Z,96541.00
2023-04-11T09:08:22.123Z,96543.22
2023-04-11T09:10:49.916Z,96555.09
2023-04-11T09:13:24.171Z,96546.94
2023-04-11T09:16:06.646Z,96554.63
2023-04-11T09:18:35.497Z,96540.22
2023-04-11T09:21:06.223Z,96539.41
2023-04-11T09:23:34.059Z,96547.16
2023-04-11T09:26:02.152Z,96537.63
2023-04-11T09:28:42.627Z,96542.66
2023-04-11T09:31:13.078Z,96527.84
2023-04-11T09:33:53.567Z,96548.41
2023-04-11T09:36:22.863Z,96543.66
2023-04-11T09:38:51.387Z,96554.91
2023-04-11T09:41:30.910Z,96534.09
2023-04-11T09:44:01.353Z,96544.47
2023-04-11T09:46:29.252Z,96539.13
2023-04-11T09:48:57.261Z,96528.09
2023-04-11T09:53:58.993Z,96554.75
2023-04-11T09:56:27.738Z,96544.59
2023-04-11T09:58:57.375Z,96540.88
2023-04-11T10:01:27.430Z,96548.69
2023-04-11T10:03:57.531Z,96541.09
2023-04-11T10:06:34.143Z,96530.31
2023-04-11T10:09:10.956Z,96534.78
2023-04-11T10:11:42.260Z,96532.06
2023-04-11T10:14:10.186Z,96522.50
2023-04-11T10:17:12.652Z,96536.31
2023-04-11T10:19:40.626Z,96533.47
2023-04-11T10:22:08.366Z,96531.38
2023-04-11T10:24:36.265Z,96535.63
2023-04-11T10:27:06.241Z,96546.84
2023-04-11T10:29:51.863Z,96549.09
2023-04-11T10:32:23.494Z,96558.47
2023-04-11T10:35:31.077Z,96563.94
2023-04-11T10:38:00.156Z,96566.19
2023-04-11T10:40:30.217Z,96570.28
2023-04-11T10:42:58.591Z,96575.78
2023-04-11T10:45:27.554Z,96573.34
2023-04-11T10:48:05.574Z,96581.06
2023-04-11T10:50:40.690Z,96570.22
2023-04-11T10:53:14.241Z,96566.16
2023-04-11T10:55:47.401Z,96557.34
2023-04-11T10:58:19.485Z,96559.78
2023-04-11T11:01:26.654Z,96559.59
2023-04-11T11:04:01.693Z,96557.94
2023-04-11T11:06:30.987Z,96562.19
2023-04-11T11:08:59.663Z,96542.22
2023-04-11T11:11:27.502Z,96554.75
2023-04-11T11:13:56.848Z,96550.56
2023-04-11T11:16:27.680Z,96558.16
2023-04-11T11:18:56.826Z,96567.63
2023-04-11T11:21:28.634Z,96561.34
2023-04-11T11:23:57.793Z,96558.56
2023-04-11T11:26:39.798Z,96566.31
2023-04-11T11:29:08.115Z,96567.38
2023-04-11T11:31:37.706Z,96561.41
2023-04-11T11:34:22.206Z,96563.75
2023-04-11T11:36:53.679Z,96571.00
2023-04-11T11:39:22.845Z,96568.09
2023-04-11T11:41:52.181Z,96595.69
2023-04-11T11:44:26.444Z,96592.09
2023-04-11T11:47:05.140Z,96583.81
2023-04-11T11:49:46.393Z,96581.28
2023-04-11T11:52:35.451Z,96579.63
2023-04-11T11:55:07.597Z,96577.78
2023-04-11T11:57:37.279Z,96580.81
2023-04-11T12:00:10.637Z,96568.94
2023-04-11T12:02:40.662Z,96564.38
2023-04-11T12:05:11.734Z,96581.72
2023-04-11T12:07:41.450Z,96576.38
2023-04-11T12:10:15.023Z,96567.66
2023-04-11T12:12:44.353Z,96558.44
2023-04-11T12:15:23.402Z,96556.16
2023-04-11T12:17:52.411Z,96569.72
2023-04-11T12:20:23.927Z,96561.13
2023-04-11T12:22:54.585Z,96555.53
2023-04-11T12:25:25.653Z,96557.16
2023-04-11T12:27:53.464Z,96556.69
2023-04-11T12:30:21.240Z,96562.28
2023-04-11T12:32:49.227Z,96554.53
2023-04-11T12:35:17.054Z,96559.44
2023-04-11T12:37:45.553Z,96554.31
2023-04-11T12:40:15.431Z,96553.09
2023-04-11T12:42:53.561Z,96546.13
2023-04-11T12:45:24.333Z,96546.50
2023-04-11T12:47:52.436Z,96553.38
2023-04-11T12:50:22.938Z,96556.72
2023-04-11T12:52:50.786Z,96566.78
2023-04-11T12:55:20.437Z,96566.06
2023-04-11T12:57:48.538Z,96557.56
2023-04-11T13:00:17.473Z,96563.00
2023-04-11T13:02:45.849Z,96559.88
2023-04-11T13:05:15.834Z,96565.38
2023-04-11T13:07:46.127Z,96552.75
2023-04-11T13:10:15.777Z,96562.44
2023-04-11T13:12:46.587Z,96559.22
2023-04-11T13:15:16.558Z,96547.56
2023-04-11T13:17:44.716Z,96540.34
2023-04-11T13:20:13.836Z,96545.66
2023-04-11T13:22:42.927Z,96552.25
2023-04-11T13:25:12.187Z,96568.72
2023-04-11T13:27:40.215Z,96558.88
2023-04-11T13:30:11.254Z,96562.78
2023-04-11T13:32:40.180Z,96558.03
2023-04-11T13:35:08.967Z,96549.38
2023-04-11T13:37:36.672Z,96550.34
2023-04-11T13:40:08.556Z,96551.56
2023-04-11T13:42:36.520Z,96556.06
2023-04-11T13:45:04.653Z,96542.97
2023-04-11T13:47:36.902Z,96548.78
2023-04-11T13:50:08.095Z,96529.59
2023-04-11T13:52:35.824Z,96521.06
2023-04-11T13:55:03.721Z,96522.72
2023-04-11T13:57:31.765Z,96526.28
2023-04-11T13:59:59.863Z,96519.28
2023-04-11T14:02:28.234Z,96517.81
2023-04-11T14:04:58.166Z,96525.06
2023-04-11T14:07:26.078Z,96531.72
2023-04-11T14:09:53.854Z,96507.72
2023-04-11T14:12:21.982Z,96504.94
2023-04-11T14:14:49.756Z,96508.84
2023-04-11T14:17:17.454Z,96506.94
2023-04-11T14:19:45.493Z,96506.19
2023-04-11T14:22:14.614Z,96505.44
2023-04-11T14:24:42.852Z,96501.75
2023-04-11T14:27:10.566Z,96504.41
2023-04-11T14:29:38.540Z,96496.84
2023-04-11T14:32:07.641Z,96506.03
2023-04-11T14:34:35.427Z,96511.78
2023-04-11T14:37:03.797Z,96502.72
2023-04-11T14:39:33.186Z,96504.13
2023-04-11T14:42:02.003Z,96489.38
2023-04-11T14:44:30.171Z,96480.09
2023-04-11T14:46:58.012Z,96490.00
2023-04-11T14:49:25.824Z,96483.09
2023-04-11T14:51:53.663Z,96482.13
2023-04-11T14:54:24.210Z,96467.97
2023-04-11T14:56:53.836Z,96465.50
2023-04-11T14:59:22.053Z,96460.19
2023-04-11T15:01:49.936Z,96461.66
2023-04-11T15:04:19.269Z,96450.78
2023-04-11T15:06:47.565Z,96451.66
2023-04-11T15:09:19.834Z,96447.63
2023-04-11T15:11:47.792Z,96457.19
2023-04-11T15:14:16.921Z,96441.63
2023-04-11T15:16:44.700Z,96450.13
2023-04-11T15:19:12.526Z,96442.41
2023-04-11T15:21:40.319Z,96438.69
2023-04-11T15:24:08.384Z,96446.03
2023-04-11T15:26:36.362Z,96447.84
2023-04-11T15:29:04.152Z,96438.41
2023-04-11T15:31:33.435Z,96438.13
2023-04-11T15:34:03.874Z,96438.25
2023-04-11T15:36:31.700Z,96433.63
2023-04-11T15:39:00.630Z,96438.53
2023-04-11T15:41:28.443Z,96436.59
2023-04-11T15:43:56.535Z,96432.56
2023-04-11T15:46:27.242Z,96423.88
2023-04-11T15:48:56.506Z,96422.84
2023-04-11T15:51:24.755Z,96408.56
2023-04-11T15:53:52.710Z,96428.28
2023-04-11T15:56:20.566Z,96423.28
2023-04-11T15:58:49.216Z,96424.28
2023-04-11T16:01:25.360Z,96429.72
2023-04-11T16:03:54.151Z,96428.31
2023-04-11T16:06:23.562Z,96379.53
2023-04-11T16:08:51.744Z,96409.56
2023-04-11T16:11:19.621Z,96412.66
2023-04-11T16:13:47.538Z,96403.75
2023-04-11T16:16:15.569Z,96415.50
2023-04-11T16:18:43.331Z,96381.00
2023-04-11T16:21:14.717Z,96405.06
2023-04-11T16:23:44.095Z,96406.94
2023-04-11T16:26:11.882Z,96402.53
2023-04-11T16:28:39.817Z,96384.00
2023-04-11T16:31:09.403Z,96394.78
2023-04-11T16:33:37.261Z,96388.81
2023-04-11T16:36:05.795Z,96378.13
2023-04-11T16:38:33.874Z,96373.53
2023-04-11T16:41:03.500Z,96360.94
2023-04-11T16:43:31.400Z,96379.44
2023-04-11T16:45:59.303Z,96384.97
2023-04-11T16:48:27.209Z,96373.50
2023-04-11T16:50:55.134Z,96371.41
2023-04-11T16:53:22.877Z,96375.06
2023-04-11T16:55:52.589Z,96373.75
2023-04-11T16:58:21.711Z,96371.09
2023-04-11T17:00:52.059Z,96353.91
2023-04-11T17:03:20.107Z,96345.56
2023-04-11T17:05:48.162Z,96372.66
2023-04-11T17:08:15.889Z,96371.47
2023-04-11T17:10:44.155Z,96363.16
2023-04-11T17:13:12.798Z,96354.34
2023-04-11T17:15:42.109Z,96360.53
2023-04-11T17:18:09.910Z,96357.34
2023-04-11T17:20:37.940Z,96350.50
2023-04-11T17:23:05.733Z,96349.81
2023-04-11T17:25:33.479Z,96330.72
2023-04-11T17:28:01.546Z,96352.00
2023-04-11T17:30:31.187Z,96348.03
2023-04-11T17:33:00.373Z,96357.03
2023-04-11T17:35:28.954Z,96351.19
2023-04-11T17:37:56.746Z,96345.09
2023-04-11T17:40:24.581Z,96344.22
2023-04-11T17:42:52.375Z,96346.66
2023-04-11T17:45:21.503Z,96342.94
2023-04-11T17:47:49.299Z,96351.03
2023-04-11T17:50:20.063Z,96333.72
2023-04-11T17:52:48.429Z,96336.81
2023-04-11T17:55:17.355Z,96345.28
2023-04-11T18:00:36.738Z,96332.75
2023-04-11T18:03:10.030Z,96334.22
2023-04-11T18:05:39.425Z,96341.19
2023-04-11T18:08:07.828Z,96338.06
2023-04-11T18:10:35.979Z,96334.00
2023-04-11T18:13:04.540Z,96336.19
2023-04-11T18:15:33.168Z,96335.75
2023-04-11T18:18:03.962Z,96316.56
2023-04-11T18:20:32.333Z,96317.97
2023-04-11T18:23:02.108Z,96336.00
2023-04-11T18:25:30.099Z,96341.66
2023-04-11T18:27:57.904Z,96344.56
2023-04-11T18:30:26.305Z,96337.84
2023-04-11T18:32:55.081Z,96336.00
2023-04-11T18:35:24.277Z,96338.31
2023-04-11T18:37:53.322Z,96346.91
2023-04-11T18:40:22.476Z,96337.59
2023-04-11T18:42:53.203Z,96340.88
2023-04-11T18:45:22.943Z,96338.44
2023-04-11T18:47:51.459Z,96347.16
2023-04-11T18:50:19.788Z,96345.06
2023-04-11T18:52:51.405Z,96360.75
2023-04-11T18:55:24.140Z,96353.28
2023-04-11T18:57:54.778Z,96347.38
2023-04-11T19:00:25.075Z,96345.75
2023-04-11T19:02:53.243Z,96338.78
2023-04-11T19:05:21.241Z,96337.03
2023-04-11T19:07:49.126Z,96334.63
2023-04-11T19:10:17.382Z,96340.41
2023-04-11T19:12:46.626Z,96339.47
2023-04-11T19:15:14.596Z,96344.47
2023-04-11T19:17:42.701Z,96354.34
2023-04-11T19:20:13.565Z,96347.47
2023-04-11T19:22:41.990Z,96367.78
2023-04-11T19:25:11.552Z,96358.38
2023-04-11T19:27:41.507Z,96361.97
2023-04-11T19:30:14.126Z,96358.16
2023-04-11T19:32:43.712Z,96358.38
2023-04-11T19:35:12.815Z,96345.59
2023-04-11T19:37:41.244Z,96335.97
2023-04-11T19:40:12.310Z,96352.38
2023-04-11T19:42:40.536Z,96343.91
2023-04-11T19:45:12.076Z,96339.47
2023-04-11T19:47:40.762Z,96328.34
2023-04-11T19:50:12.125Z,96326.72
2023-04-11T19:52:39.980Z,96328.56
2023-04-11T19:55:09.408Z,96325.72
2023-04-11T19:57:38.285Z,96317.16
2023-04-11T20:00:12.832Z,96312.72
2023-04-11T20:02:45.516Z,96312.22
2023-04-11T20:05:15.205Z,96311.44
2023-04-11T20:07:43.987Z,96327.25
2023-04-11T20:10:12.328Z,96315.22
2023-04-11T20:12:40.415Z,96319.84
2023-04-11T20:15:09.523Z,96325.16
2023-04-11T20:17:37.421Z,96325.66
2023-04-11T20:20:08.412Z,96341.59
2023-04-11T20:22:38.250Z,96342.59
2023-04-11T20:25:08.039Z,96333.78
2023-04-11T20:27:36.296Z,96338.56
2023-04-11T20:30:07.780Z,96338.09
2023-04-11T20:32:35.636Z,96329.25
2023-04-11T20:35:05.500Z,96317.84
2023-04-11T20:37:37.259Z,96323.38
2023-04-11T20:40:07.941Z,96324.13
2023-04-11T20:42:40.081Z,96321.72
2023-04-11T20:45:10.406Z,96315.25
2023-04-11T20:47:38.431Z,96306.88
2023-04-11T20:50:09.002Z,96301.69
2023-04-11T20:52:41.098Z,96289.84
2023-04-11T20:55:09.653Z,96302.59
2023-04-11T20:57:37.650Z,96284.38
2023-04-11T21:00:12.335Z,96280.28
2023-04-11T21:02:41.649Z,96283.78
2023-04-11T21:05:09.809Z,96277.53
2023-04-11T21:07:39.709Z,96255.44
2023-04-11T21:10:08.896Z,96266.94
2023-04-11T21:12:36.909Z,96277.31
2023-04-11T21:15:05.488Z,96280.41
2023-04-11T21:17:34.528Z,96265.53
2023-04-11T21:20:02.393Z,96282.09
2023-04-11T21:22:30.210Z,96273.59
2023-04-11T21:24:59.380Z,96258.00
2023-04-11T21:27:27.093Z,96278.09
2023-04-11T21:29:54.821Z,96277.88
2023-04-11T21:32:22.533Z,96276.34
2023-04-11T21:34:50.318Z,96274.03
2023-04-11T21:37:18.035Z,96278.09
2023-04-11T21:39:45.913Z,96279.09
2023-04-11T21:42:15.026Z,96282.75
2023-04-11T21:44:42.782Z,96271.50
2023-04-11T21:47:10.665Z,96267.97
2023-04-11T21:49:38.475Z,96266.22
2023-04-11T21:52:06.189Z,96259.34
2023-04-11T21:54:35.075Z,96269.31
2023-04-11T21:57:02.820Z,96276.25
2023-04-11T21:59:34.984Z,96276.44
2023-04-11T22:02:02.653Z,96274.66
2023-04-11T22:04:30.673Z,96263.91
2023-04-11T22:06:59.216Z,96277.50
2023-04-11T22:09:27.301Z,96277.97
2023-04-11T22:11:55.027Z,96264.81
2023-04-11T22:14:27.049Z,96271.28
2023-04-11T22:16:58.275Z,96267.97
2023-04-11T22:19:26.591Z,96261.88
2023-04-11T22:21:56.450Z,96262.56
2023-04-11T22:24:31.121Z,96263.09
2023-04-11T22:27:04.069Z,96251.28
2023-04-11T22:29:34.610Z,96245.22
2023-04-11T22:32:04.204Z,96245.47
2023-04-11T22:34:32.055Z,96229.53
2023-04-11T22:37:00.033Z,96241.97
2023-04-11T22:39:27.792Z,96234.66
2023-04-11T22:41:55.542Z,96232.28
2023-04-11T22:44:23.347Z,96225.34
2023-04-11T22:47:06.266Z,96209.06
2023-04-11T22:49:40.712Z,96213.78
2023-04-11T22:52:14.463Z,96209.97
2023-04-11T22:54:42.987Z,96206.00
2023-04-11T22:57:11.096Z,96207.63
2023-04-11T22:59:40.953Z,96194.28
2023-04-11T23:02:10.343Z,96164.00
2023-04-11T23:04:39.554Z,96206.75
2023-04-11T23:07:07.317Z,96211.16
2023-04-11T23:09:35.174Z,96168.91
2023-04-11T23:12:02.897Z,96188.44
2023-04-11T23:14:32.012Z,96188.03
2023-04-11T23:16:59.896Z,96180.72
2023-04-11T23:19:29.995Z,96171.66
2023-04-11T23:21:59.499Z,96173.09
2023-04-11T23:24:29.009Z,96173.22
2023-04-11T23:26:56.937Z,96164.19
2023-04-11T23:29:24.805Z,96167.91
2023-04-11T23:31:52.625Z,96158.59
2023-04-11T23:34:20.993Z,96152.19
2023-04-11T23:36:49.305Z,96137.66
2023-04-11T23:39:18.423Z,96137.56
2023-04-11T23:41:46.187Z,96119.97
2023-04-11T23:44:15.673Z,96109.56
2023-04-11T23:46:43.568Z,96105.13
2023-04-11T23:49:11.408Z,96077.78
2023-04-11T23:51:39.889Z,96083.47
2023-04-11T23:54:07.749Z,96094.31
2023-04-11T23:56:37.003Z,96105.84
2023-04-11T23:59:04.860Z,96087.09
